Time;durP1;ratioP1;P1;durP2;ratioP2;P2;SDS_P1;SDS_P2;PMS_P1;PMS_P2;Temp;Humidity;BMP_temperature;BMP_pressure;BME280_temperature;BME280_humidity;BME280_pressure;Samples;Min_cycle;Max_cycle;Signal;HPM_P1;HPM_P2
2023/07/08 00:00:14;;;;;;;8.60;8.00;;;;;;;24.02;71.43;99377.56;4956332;29;20682;-76
2023/07/08 00:02:42;;;;;;;9.07;8.20;;;;;;;24.07;71.19;99361.25;4955994;29;20199;-78
2023/07/08 00:05:10;;;;;;;8.63;8.10;;;;;;;24.05;71.09;99359.91;4958133;28;20203;-77
2023/07/08 00:07:37;;;;;;;8.93;8.23;;;;;;;24.09;71.02;99361.75;4969825;28;20278;-78
2023/07/08 00:10:12;;;;;;;8.87;8.23;;;;;;;24.09;70.97;99350.09;4956261;29;20243;-77
2023/07/08 00:12:40;;;;;;;8.77;8.10;;;;;;;24.01;70.96;99359.66;4955525;29;20246;-77
2023/07/08 00:15:08;;;;;;;9.23;8.50;;;;;;;24.06;70.85;99362.31;4955858;29;20203;-77
2023/07/08 00:17:34;;;;;;;9.60;8.80;;;;;;;24.13;70.17;99368.22;4955649;29;20221;-77
2023/07/08 00:20:01;;;;;;;9.50;8.70;;;;;;;24.10;69.70;99368.00;4955754;29;20578;-77
2023/07/08 00:22:28;;;;;;;9.43;8.63;;;;;;;24.10;69.94;99366.06;4955961;29;20256;-77
2023/07/08 00:24:54;;;;;;;8.97;8.37;;;;;;;24.17;69.38;99369.28;4955891;29;20198;-76
2023/07/08 00:27:21;;;;;;;9.17;8.43;;;;;;;24.08;69.68;99360.16;4953820;29;20252;-75
2023/07/08 00:29:49;;;;;;;9.23;8.53;;;;;;;24.08;70.15;99353.91;4954148;29;20235;-75
2023/07/08 00:32:16;;;;;;;8.33;7.80;;;;;;;24.15;69.56;99355.19;4954728;29;20254;-76
2023/07/08 00:34:43;;;;;;;9.13;8.37;;;;;;;24.04;70.33;99363.69;4954912;29;20679;-77
2023/07/08 00:37:12;;;;;;;8.77;8.17;;;;;;;24.02;70.22;99360.47;4953934;29;20259;-77
2023/07/08 00:39:39;;;;;;;8.13;7.63;;;;;;;24.08;70.03;99373.72;4954789;29;20207;-77
2023/07/08 00:42:15;;;;;;;9.03;8.23;;;;;;;23.98;70.57;99360.22;4954539;29;20199;-77
2023/07/08 00:44:42;;;;;;;12.47;8.30;;;;;;;24.01;70.48;99364.31;4954948;29;20222;-77
2023/07/08 00:47:12;;;;;;;9.00;8.30;;;;;;;23.93;70.81;99367.63;4953497;28;20198;-76
2023/07/08 00:49:44;;;;;;;9.27;8.57;;;;;;;23.85;70.93;99382.56;4954374;29;20279;-77
2023/07/08 00:52:19;;;;;;;8.00;7.40;;;;;;;23.94;70.75;99377.38;4954183;29;20619;-77
2023/07/08 00:54:46;;;;;;;8.30;7.70;;;;;;;24.04;70.56;99385.41;4954457;29;20199;-77
2023/07/08 00:57:13;;;;;;;9.03;8.33;;;;;;;23.96;70.31;99384.16;4953710;29;20646;-77
2023/07/08 00:59:44;;;;;;;8.80;7.97;;;;;;;23.84;70.68;99385.56;4954656;29;20206;-76
2023/07/08 01:02:15;;;;;;;8.47;7.80;;;;;;;23.90;70.69;99393.41;4954459;29;20191;-75
2023/07/08 01:04:50;;;;;;;8.50;7.90;;;;;;;23.88;70.77;99382.00;4954409;29;20666;-77
2023/07/08 01:07:21;;;;;;;9.10;8.23;;;;;;;23.93;70.07;99390.13;4973632;28;20249;-77
2023/07/08 01:09:51;;;;;;;7.87;7.17;;;;;;;23.82;70.92;99395.91;4973578;28;20241;-75
2023/07/08 01:12:21;;;;;;;7.20;6.70;;;;;;;23.76;71.06;99395.13;4968881;28;20258;-77
2023/07/08 01:14:49;;;;;;;8.67;7.87;;;;;;;23.60;72.01;99382.78;4954096;29;20635;-78
2023/07/08 01:17:17;;;;;;;9.07;8.03;;;;;;;23.55;72.49;99388.25;4954407;29;20206;-78
2023/07/08 01:19:45;;;;;;;8.30;7.67;;;;;;;23.60;72.19;99396.34;4954364;29;20637;-77
2023/07/08 01:22:13;;;;;;;9.47;8.07;;;;;;;23.56;72.46;99389.06;4952913;29;20207;-78
2023/07/08 01:24:42;;;;;;;9.17;8.30;;;;;;;23.50;72.70;99385.59;4954123;29;20203;-77
2023/07/08 01:27:12;;;;;;;9.07;8.03;;;;;;;23.41;72.65;99387.28;4954358;29;20201;-76
2023/07/08 01:29:39;;;;;;;8.83;8.20;;;;;;;23.43;72.33;99390.50;4953972;29;20280;-78
2023/07/08 01:32:06;;;;;;;9.13;8.40;;;;;;;23.46;72.19;99395.38;4953188;29;20199;-77
2023/07/08 01:34:34;;;;;;;8.90;8.17;;;;;;;23.43;72.35;99392.41;4954298;29;20202;-77
2023/07/08 01:37:03;;;;;;;9.17;8.47;;;;;;;23.25;72.85;99374.91;4953530;29;20766;-77
2023/07/08 01:39:33;;;;;;;9.60;8.60;;;;;;;23.33;72.66;99382.44;4953699;29;20202;-78
2023/07/08 01:42:00;;;;;;;8.47;7.97;;;;;;;23.40;72.31;99385.63;4953129;29;20714;-75
2023/07/08 01:44:29;;;;;;;9.17;8.47;;;;;;;23.38;72.34;99387.84;4953565;29;20253;-78
2023/07/08 01:47:00;;;;;;;10.50;8.00;;;;;;;23.33;72.54;99396.00;4953853;29;20257;-79
2023/07/08 01:49:28;;;;;;;8.73;7.93;;;;;;;23.25;72.58;99387.66;4953166;29;20211;-79
2023/07/08 01:51:55;;;;;;;8.67;7.97;;;;;;;23.25;72.54;99399.31;4953266;29;20662;-78
2023/07/08 01:54:22;;;;;;;8.47;7.87;;;;;;;23.28;72.26;99400.66;4953187;29;20194;-79
2023/07/08 01:56:56;;;;;;;8.63;8.03;;;;;;;23.30;72.29;99401.16;4953535;29;20745;-77
2023/07/08 01:59:22;;;;;;;10.73;8.20;;;;;;;23.41;72.48;99406.25;4953420;28;20199;-78
2023/07/08 02:01:54;;;;;;;8.30;7.70;;;;;;;23.35;72.26;99407.38;4952524;29;20685;-77
2023/07/08 02:04:21;;;;;;;8.73;7.87;;;;;;;23.27;72.39;99407.97;4952768;29;20633;-77
2023/07/08 02:06:51;;;;;;;9.23;8.33;;;;;;;;;;4968661;28;20208;-78
2023/07/08 02:09:18;;;;;;;8.63;8.13;;;;;;;23.37;72.03;99410.63;4972909;28;20244;-76
2023/07/08 02:11:45;;;;;;;8.77;8.17;;;;;;;23.44;71.82;99411.09;4960534;28;20197;-76
2023/07/08 02:14:13;;;;;;;10.20;8.90;;;;;;;23.39;72.01;99399.47;4953094;29;20193;-76
2023/07/08 02:16:39;;;;;;;10.87;9.17;;;;;;;23.40;72.43;99410.03;4953573;29;20198;-77
2023/07/08 02:19:06;;;;;;;10.23;9.37;;;;;;;23.35;71.69;99415.50;4953094;29;20253;-77
2023/07/08 02:21:33;;;;;;;10.03;9.27;;;;;;;23.27;72.02;99410.66;4951838;29;20240;-76
2023/07/08 02:24:01;;;;;;;10.40;9.47;;;;;;;23.24;71.84;99399.59;4953166;29;20562;-75
2023/07/08 02:26:28;;;;;;;10.20;9.50;;;;;;;23.26;72.09;99410.94;4952720;29;20272;-76
2023/07/08 02:28:54;;;;;;;11.03;10.00;;;;;;;23.31;71.45;99414.44;4952184;29;20728;-76
2023/07/08 02:31:24;;;;;;;10.40;9.60;;;;;;;23.25;71.77;99421.00;4952851;29;20660;-77
2023/07/08 02:33:51;;;;;;;10.90;10.10;;;;;;;23.27;71.72;99418.00;4952999;29;20583;-76
2023/07/08 02:36:17;;;;;;;11.37;10.57;;;;;;;23.17;72.15;99424.25;4952619;29;20212;-76
2023/07/08 02:38:44;;;;;;;12.00;10.77;;;;;;;23.11;72.19;99428.06;4952083;29;20263;-75
2023/07/08 02:41:11;;;;;;;12.10;11.00;;;;;;;23.10;72.22;99431.88;4952781;29;20639;-77
2023/07/08 02:43:38;;;;;;;11.80;10.80;;;;;;;22.95;72.47;99426.50;4953211;29;20206;-76
2023/07/08 02:46:05;;;;;;;12.40;11.27;;;;;;;23.00;73.01;99429.22;4953004;29;20193;-75
2023/07/08 02:48:33;;;;;;;13.23;12.03;;;;;;;22.94;72.73;99427.59;4953296;29;20197;-75
2023/07/08 02:51:00;;;;;;;11.53;10.63;;;;;;;22.98;72.44;99431.38;4951980;29;20264;-76
2023/07/08 02:53:27;;;;;;;16.00;11.07;;;;;;;22.99;72.24;99433.00;4952878;29;20289;-76
2023/07/08 02:55:54;;;;;;;17.20;12.93;;;;;;;23.03;72.02;99428.66;4952646;29;20662;-76
2023/07/08 02:58:21;;;;;;;13.93;12.57;;;;;;;22.93;72.18;99442.25;4953283;29;20257;-78
2023/07/08 03:00:52;;;;;;;13.80;12.47;;;;;;;22.77;73.03;99440.69;4952307;29;20197;-76
2023/07/08 03:03:19;;;;;;;14.33;13.13;;;;;;;22.84;72.46;99452.03;4953140;29;20198;-76
2023/07/08 03:05:54;;;;;;;14.63;12.30;;;;;;;22.92;72.34;99453.38;4959690;28;20200;-75
2023/07/08 03:08:21;;;;;;;14.20;11.83;;;;;;;22.85;72.30;99461.78;4971700;28;20188;-75
2023/07/08 03:10:48;;;;;;;13.87;12.60;;;;;;;22.86;72.39;99463.41;4955306;28;20282;-75
2023/07/08 03:13:15;;;;;;;13.20;12.20;;;;;;;22.82;72.28;99459.63;4956233;29;20588;-75
2023/07/08 03:15:45;;;;;;;14.63;13.20;;;;;;;22.87;72.17;99466.94;4956209;29;20197;-75
2023/07/08 03:18:12;;;;;;;13.87;12.57;;;;;;;22.85;72.09;99460.97;4956446;29;20193;-75
2023/07/08 03:20:40;;;;;;;15.37;12.43;;;;;;;22.82;72.45;99469.66;4955225;29;20209;-75
2023/07/08 03:23:08;;;;;;;14.03;13.03;;;;;;;22.62;72.42;99445.34;4955898;29;20192;-74
2023/07/08 03:25:37;;;;;;;13.67;12.70;;;;;;;22.93;71.93;99474.75;4955739;29;20660;-74
2023/07/08 03:28:05;;;;;;;13.27;12.37;;;;;;;22.98;71.41;99479.34;4956147;29;20201;-74
2023/07/08 03:30:32;;;;;;;14.40;13.00;;;;;;;22.97;71.66;99475.84;4955882;29;20226;-74
2023/07/08 03:32:59;;;;;;;15.77;13.73;;;;;;;22.90;71.65;99472.59;4956334;29;20201;-75
2023/07/08 03:35:26;;;;;;;14.93;13.70;;;;;;;22.95;71.63;99486.13;4955983;29;20256;-74
2023/07/08 03:37:53;;;;;;;16.60;14.70;;;;;;;22.96;71.46;99487.78;4954726;29;20226;-75
2023/07/08 03:40:21;;;;;;;16.47;14.90;;;;;;;23.03;71.15;99488.25;4955792;29;20255;-75
2023/07/08 03:42:48;;;;;;;16.63;15.10;;;;;;;23.08;71.16;99490.94;4955464;29;20197;-77
2023/07/08 03:45:15;;;;;;;19.00;14.63;;;;;;;22.86;71.81;99486.97;4955817;29;20206;-77
2023/07/08 03:47:41;;;;;;;16.30;14.87;;;;;;;22.86;71.74;99486.97;4955969;29;20201;-75
2023/07/08 03:50:18;;;;;;;16.30;14.90;;;;;;;22.94;71.72;99489.94;4955444;29;20229;-76
2023/07/08 03:52:45;;;;;;;16.00;14.53;;;;;;;23.04;71.21;99494.50;4955088;29;20188;-77
2023/07/08 03:55:12;;;;;;;16.40;14.83;;;;;;;23.18;70.76;99509.06;4954979;29;20201;-75
2023/07/08 03:57:41;;;;;;;15.70;14.20;;;;;;;23.30;71.07;99496.88;4954962;29;20198;-75
2023/07/08 04:00:09;;;;;;;17.50;15.70;;;;;;;23.28;70.02;99501.75;4955622;29;20207;-74
2023/07/08 04:02:36;;;;;;;15.83;14.40;;;;;;;23.35;70.15;99513.09;4955460;29;20219;-74
2023/07/08 04:05:03;;;;;;;16.33;14.87;;;;;;;23.32;70.06;99513.66;4956949;28;20234;-74
2023/07/08 04:07:30;;;;;;;16.17;14.33;;;;;;;23.29;70.02;99506.09;4974321;28;20578;-74
2023/07/08 04:09:57;;;;;;;15.83;14.43;;;;;;;23.36;69.98;99519.34;4974192;28;20311;-74
2023/07/08 04:12:23;;;;;;;15.77;14.33;;;;;;;23.47;69.81;99527.16;4956575;28;20249;-75
2023/07/08 04:14:51;;;;;;;14.93;13.83;;;;;;;23.51;69.63;99522.78;4955088;29;20748;-76
2023/07/08 04:17:19;;;;;;;15.73;14.53;;;;;;;23.61;69.27;99525.44;4955469;29;20206;-77
2023/07/08 04:19:46;;;;;;;14.90;13.60;;;;;;;23.69;68.93;99530.28;4955313;29;20258;-77
2023/07/08 04:22:13;;;;;;;15.10;13.70;;;;;;;23.87;68.72;99524.22;4953493;28;20262;-76
2023/07/08 04:24:40;;;;;;;15.50;14.07;;;;;;;24.37;67.11;99529.28;4954425;29;20262;-76
2023/07/08 04:27:09;;;;;;;15.00;13.23;;;;;;;24.96;64.65;99524.38;4954797;29;20206;-77
2023/07/08 04:29:35;;;;;;;14.10;12.97;;;;;;;25.01;63.93;99531.66;4954957;29;20195;-76
2023/07/08 04:32:04;;;;;;;15.83;14.00;;;;;;;24.95;64.48;99533.63;4954277;29;20588;-75
2023/07/08 04:34:31;;;;;;;14.43;13.33;;;;;;;25.03;63.92;99535.72;4954880;29;20200;-75
2023/07/08 04:36:57;;;;;;;13.93;12.83;;;;;;;24.93;64.62;99530.41;4954145;29;20260;-76
2023/07/08 04:39:24;;;;;;;12.90;12.00;;;;;;;24.91;63.94;99526.34;4953431;29;20199;-75
2023/07/08 04:41:51;;;;;;;14.27;12.73;;;;;;;24.86;64.32;99521.78;4954152;29;20200;-76
2023/07/08 04:44:18;;;;;;;14.07;12.87;;;;;;;25.46;62.49;99535.78;4954205;29;20663;-78
2023/07/08 04:46:48;;;;;;;14.33;12.90;;;;;;;25.51;61.53;99530.28;4954869;29;20207;-77
2023/07/08 04:49:16;;;;;;;13.50;12.43;;;;;;;26.42;57.99;99514.22;4953846;29;20251;-78
2023/07/08 04:51:43;;;;;;;13.83;12.83;;;;;;;27.25;55.45;99523.06;4954388;29;20291;-77
2023/07/08 04:54:11;;;;;;;13.20;12.10;;;;;;;27.97;53.39;99522.84;4953681;29;20631;-75
2023/07/08 04:56:39;;;;;;;13.33;11.30;;;;;;;28.85;50.15;99519.28;4954442;29;20655;-75
2023/07/08 04:59:08;;;;;;;12.27;11.37;;;;;;;29.23;48.80;99523.97;4953532;29;20259;-75
2023/07/08 05:01:36;;;;;;;12.23;11.47;;;;;;;29.62;46.85;99525.88;4952769;29;20203;-75
2023/07/08 05:04:04;;;;;;;12.77;11.50;;;;;;;29.81;46.58;99525.56;4954434;29;20192;-75
2023/07/08 05:06:33;;;;;;;13.00;12.10;;;;;;;29.94;46.18;99530.91;4966659;28;20609;-75
2023/07/08 05:09:00;;;;;;;13.67;11.40;;;;;;;29.68;45.73;99519.09;4972949;28;20223;-75
2023/07/08 05:11:27;;;;;;;12.13;10.83;;;;;;;30.12;45.79;99518.81;4953977;28;20575;-75
2023/07/08 05:13:54;;;;;;;12.63;9.80;;;;;;;30.87;44.14;99527.25;4953615;29;20260;-75
2023/07/08 05:16:20;;;;;;;12.77;10.70;;;;;;;31.14;42.66;99507.63;4953535;29;20697;-76
2023/07/08 05:18:47;;;;;;;11.47;10.57;;;;;;;31.22;41.94;99520.50;4953814;29;20689;-78
2023/07/08 05:21:14;;;;;;;11.83;10.50;;;;;;;31.72;40.79;99526.06;4952141;29;20200;-75
2023/07/08 05:23:44;;;;;;;10.63;9.83;;;;;;;31.16;41.76;99530.06;4953375;29;20262;-75
2023/07/08 05:26:10;;;;;;;11.23;10.13;;;;;;;31.43;40.97;99524.13;4953327;29;20735;-75
2023/07/08 05:28:37;;;;;;;11.60;10.50;;;;;;;31.63;40.39;99531.59;4953082;29;20228;-76
2023/07/08 05:31:04;;;;;;;12.77;10.50;;;;;;;32.16;39.97;99537.19;4952214;29;20577;-75
2023/07/08 05:33:32;;;;;;;11.77;10.40;;;;;;;32.36;39.08;99530.91;4952709;28;20240;-75
2023/07/08 05:35:59;;;;;;;11.47;10.37;;;;;;;32.21;40.29;99527.97;4953319;29;20582;-76
2023/07/08 05:38:27;;;;;;;11.07;9.90;;;;;;;32.81;38.06;99531.75;4953752;29;20198;-75
2023/07/08 05:40:57;;;;;;;11.87;9.77;;;;;;;32.73;38.89;99524.38;4952515;29;20208;-74
2023/07/08 05:43:24;;;;;;;12.17;11.37;;;;;;;32.78;37.35;99520.56;4953189;29;20580;-70
2023/07/08 05:45:50;;;;;;;10.70;10.10;;;;;;;32.20;38.69;99518.88;4953919;29;20199;-68
2023/07/08 05:48:17;;;;;;;10.97;10.03;;;;;;;31.65;39.83;99503.78;4953330;29;20636;-71
2023/07/08 05:50:46;;;;;;;11.53;10.03;;;;;;;32.03;39.02;99504.50;4952949;29;20231;-70
2023/07/08 05:53:13;;;;;;;10.63;9.87;;;;;;;32.06;38.71;99503.81;4953239;29;20262;-69
2023/07/08 05:55:42;;;;;;;9.97;9.27;;;;;;;32.09;39.05;99501.19;4953128;29;20203;-71
2023/07/08 05:58:10;;;;;;;10.23;9.37;;;;;;;32.14;39.21;99511.19;4953285;29;20254;-71
2023/07/08 06:00:37;;;;;;;9.07;8.50;;;;;;;32.36;38.32;99508.91;4952041;29;20255;-70
2023/07/08 06:03:04;;;;;;;10.13;9.30;;;;;;;32.26;38.51;99503.78;4953082;29;20196;-71
2023/07/08 06:05:32;;;;;;;12.13;11.07;;;;;;;32.40;37.89;99503.53;4957764;28;20191;-70
2023/07/08 06:07:59;;;;;;;12.87;11.70;;;;;;;32.14;39.41;99495.47;4972651;28;20199;-71
2023/07/08 06:10:26;;;;;;;10.70;9.90;;;;;;;32.34;37.94;99504.88;4956142;28;20280;-70
2023/07/08 06:12:53;;;;;;;11.83;10.93;;;;;;;32.28;38.76;99504.25;4953301;29;20255;-70
2023/07/08 06:15:21;;;;;;;12.67;9.27;;;;;;;32.53;37.74;99502.41;4952898;29;20199;-70
2023/07/08 06:17:48;;;;;;;10.77;10.07;;;;;;;32.60;37.78;99500.72;4953066;29;20192;-70
2023/07/08 06:20:14;;;;;;;14.20;11.17;;;;;;;32.22;38.01;99494.59;4951659;29;20244;-69
2023/07/08 06:22:41;;;;;;;9.40;8.57;;;;;;;31.72;38.08;99477.38;4952940;29;20209;-69
2023/07/08 06:25:09;;;;;;;10.70;9.53;;;;;;;31.58;39.01;99495.28;4948323;29;20272;-69
2023/07/08 06:27:36;;;;;;;9.10;8.43;;;;;;;31.28;39.76;99485.47;4951720;29;20641;-69
2023/07/08 06:30:03;;;;;;;9.50;8.83;;;;;;;31.09;40.24;99491.34;4952768;29;20200;-69
2023/07/08 06:32:31;;;;;;;9.37;8.40;;;;;;;31.34;40.76;99482.19;4951741;29;20232;-70
2023/07/08 06:34:57;;;;;;;8.23;7.63;;;;;;;30.79;41.37;99478.69;4952782;29;20200;-70
2023/07/08 06:37:24;;;;;;;8.63;7.90;;;;;;;30.99;41.35;99486.22;4952262;29;20207;-71
2023/07/08 06:39:51;;;;;;;7.50;6.83;;;;;;;31.36;40.67;99496.38;4952327;29;20550;-71
2023/07/08 06:42:17;;;;;;;8.00;7.43;;;;;;;31.74;39.41;99497.09;4952064;29;20269;-71
2023/07/08 06:44:50;;;;;;;6.53;6.10;;;;;;;31.65;40.16;99490.84;4956894;28;20251;-70
2023/07/08 06:47:17;;;;;;;8.23;6.07;;;;;;;31.52;39.35;99489.16;4962622;28;20701;-70
2023/07/08 06:49:45;;;;;;;6.80;6.30;;;;;;;31.31;39.86;99474.59;4963936;28;20200;-80
2023/07/08 06:52:11;;;;;;;7.17;6.50;;;;;;;31.40;39.72;99485.53;4964406;28;20294;-80
2023/07/08 06:54:38;;;;;;;7.77;6.27;;;;;;;31.73;39.57;99487.22;4967885;28;20192;-79
2023/07/08 06:57:05;;;;;;;6.33;5.77;;;;;;;32.32;37.48;99496.16;4964773;28;20619;-74
2023/07/08 06:59:32;;;;;;;6.73;5.93;;;;;;;32.48;37.93;99494.38;4958039;28;20223;-80
2023/07/08 07:01:59;;;;;;;6.00;5.63;;;;;;;32.33;37.34;99498.56;4969732;28;20257;-81
2023/07/08 07:04:26;;;;;;;5.93;5.17;;;;;;;32.01;37.42;99476.53;4969780;28;20740;-77
2023/07/08 07:06:54;;;;;;;6.07;5.60;;;;;;;32.27;37.46;99499.09;4954829;29;20582;-80
2023/07/08 07:09:20;;;;;;;6.53;5.33;;;;;;;32.75;36.95;99500.03;4955574;29;20282;-77
2023/07/08 07:11:47;;;;;;;5.80;4.80;;;;;;;33.11;35.73;99510.31;4955389;29;20224;-75
2023/07/08 07:14:14;;;;;;;7.57;5.07;;;;;;;32.48;36.31;99491.63;4954376;29;20192;-75
2023/07/08 07:16:42;;;;;;;6.17;4.30;;;;;;;32.74;36.12;99487.44;4957561;28;20727;-74
2023/07/08 07:19:08;;;;;;;5.33;4.73;;;;;;;32.92;36.35;99510.88;4962090;28;20283;-75
2023/07/08 07:21:35;;;;;;;6.37;4.37;;;;;;;32.86;35.42;99517.75;4962721;28;20204;-75
2023/07/08 07:24:03;;;;;;;4.67;4.27;;;;;;;33.09;35.65;99523.63;4960933;28;20255;-74
2023/07/08 07:26:30;;;;;;;5.00;4.30;;;;;;;32.86;35.06;99517.75;4955628;28;20574;-76
2023/07/08 07:28:57;;;;;;;11.27;4.77;;;;;;;32.55;36.00;99522.16;4955637;29;20192;-76
2023/07/08 07:31:24;;;;;;;5.40;4.90;;;;;;;31.39;37.52;99514.94;4955136;29;20215;-75
2023/07/08 07:33:50;;;;;;;5.03;4.60;;;;;;;31.28;38.79;99527.44;4956771;29;20207;-76
2023/07/08 07:36:17;;;;;;;6.17;4.83;;;;;;;31.14;39.20;99515.84;4956385;29;20200;-76
2023/07/08 07:38:44;;;;;;;4.93;4.63;;;;;;;31.25;38.82;99522.63;4955642;29;20255;-76
2023/07/08 07:41:12;;;;;;;5.27;4.77;;;;;;;31.21;39.24;99542.78;4956283;29;20565;-75
2023/07/08 07:43:39;;;;;;;6.10;4.90;;;;;;;30.70;41.20;99521.81;4956708;29;20385;-75
2023/07/08 07:46:07;;;;;;;5.70;4.53;;;;;;;30.51;41.56;99529.59;4956555;29;20275;-76
2023/07/08 07:48:34;;;;;;;6.27;5.00;;;;;;;30.61;40.40;99518.28;4954131;29;20231;-75
2023/07/08 07:51:01;;;;;;;6.23;5.00;;;;;;;31.00;41.33;99520.78;4954286;29;20291;-74
2023/07/08 07:53:27;;;;;;;9.03;5.03;;;;;;;30.88;39.95;99528.06;4954237;29;20196;-75
2023/07/08 07:55:58;;;;;;;5.47;4.97;;;;;;;31.15;38.92;99524.91;4954153;29;20585;-75
2023/07/08 07:58:27;;;;;;;7.83;4.80;;;;;;;31.15;38.72;99533.94;4954760;28;20247;-76
2023/07/08 08:00:53;;;;;;;5.63;4.93;;;;;;;31.08;38.45;99528.16;4954965;29;20196;-76
2023/07/08 08:03:21;;;;;;;4.83;4.33;;;;;;;31.24;38.94;99536.69;4955527;29;20591;-76
2023/07/08 08:05:47;;;;;;;6.57;4.57;;;;;;;31.47;38.75;99536.06;4963056;28;20191;-75
2023/07/08 08:08:14;;;;;;;5.63;4.60;;;;;;;32.09;37.09;99531.44;4962153;28;20313;-75
2023/07/08 08:10:41;;;;;;;4.83;4.53;;;;;;;32.43;36.40;99549.59;4956369;29;20236;-75
2023/07/08 08:13:08;;;;;;;4.93;4.20;;;;;;;32.93;34.69;99534.53;4955861;29;20224;-76
2023/07/08 08:15:37;;;;;;;6.20;4.00;;;;;;;32.99;34.70;99544.16;4955908;29;20420;-75
2023/07/08 08:18:04;;;;;;;7.67;3.90;;;;;;;32.41;35.20;99544.44;4955886;29;20274;-74
2023/07/08 08:20:30;;;;;;;5.27;4.43;;;;;;;32.72;34.73;99533.78;4955909;29;20282;-74
2023/07/08 08:22:57;;;;;;;5.00;4.57;;;;;;;33.16;34.81;99543.16;4955483;29;20200;-75
2023/07/08 08:25:25;;;;;;;5.57;3.83;;;;;;;33.05;34.16;99548.31;4954857;29;20259;-74
2023/07/08 08:27:52;;;;;;;3.70;3.40;;;;;;;32.88;34.47;99537.50;4955445;29;20199;-75
2023/07/08 08:30:19;;;;;;;7.17;4.40;;;;;;;32.35;34.88;99537.56;4955390;29;20196;-75
2023/07/08 08:32:47;;;;;;;4.73;4.33;;;;;;;32.05;35.64;99538.75;4955557;29;20290;-75
2023/07/08 08:35:14;;;;;;;5.93;4.07;;;;;;;32.01;36.08;99529.56;4955773;29;20196;-74
2023/07/08 08:37:41;;;;;;;5.57;4.17;;;;;;;32.37;35.58;99543.50;4954726;29;20204;-74
2023/07/08 08:40:13;;;;;;;4.57;3.77;;;;;;;32.68;34.80;99535.59;4955656;29;20192;-74
2023/07/08 08:42:43;;;;;;;20.93;5.00;;;;;;;32.90;34.66;99540.72;4955303;29;20188;-74
2023/07/08 08:45:14;;;;;;;10.33;3.50;;;;;;;33.05;34.18;99542.00;4955429;29;20196;-74
2023/07/08 08:47:43;;;;;;;5.05;4.65;;;;;;;33.23;34.20;99546.94;4955378;29;20243;-75
2023/07/08 08:50:25;;;;;;;6.47;4.25;;;;;;;33.41;33.87;99550.31;4954443;29;20195;-74
2023/07/08 08:52:54;;;;;;;4.22;3.83;;;;;;;33.65;33.15;99550.28;4954902;29;20601;-75
2023/07/08 08:55:21;;;;;;;3.70;3.40;;;;;;;33.62;32.77;99555.69;4954871;29;20200;-75
2023/07/08 08:57:58;;;;;;;4.30;3.60;;;;;;;32.82;34.01;99552.63;4955077;29;20247;-74
2023/07/08 09:00:30;;;;;;;8.45;4.15;;;;;;;32.79;33.88;99556.00;4935622;29;20185;-74
2023/07/08 09:03:02;;;;;;;7.13;3.23;;;;;;;32.42;34.44;99559.00;4935828;29;20201;-74
2023/07/08 09:05:30;;;;;;;4.03;3.63;;;;;;;31.91;35.78;99557.47;4944972;28;20243;-74
2023/07/08 09:08:06;;;;;;;5.33;3.57;;;;;;;31.68;36.07;99558.88;4973942;28;20191;-73
2023/07/08 09:10:44;;;;;;;6.43;4.07;;;;;;;31.79;36.13;99553.81;4953293;29;20274;-74
2023/07/08 09:13:19;;;;;;;6.47;3.20;;;;;;;31.79;35.35;99556.56;4954019;29;20212;-74
2023/07/08 09:15:45;;;;;;;4.73;3.20;;;;;;;32.09;36.00;99545.19;4953763;29;20194;-74
2023/07/08 09:18:21;;;;;;;6.50;3.80;;;;;;;32.00;35.54;99549.94;4953591;29;20200;-73
2023/07/08 09:20:51;;;;;;;3.37;3.17;;;;;;;32.38;34.75;99556.13;4953048;29;20595;-74
2023/07/08 09:23:22;;;;;;;3.63;3.30;;;;;;;31.80;35.06;99553.47;4953764;29;20262;-74
2023/07/08 09:25:54;;;;;;;3.80;3.37;;;;;;;31.86;35.63;99546.66;4953913;29;20266;-73
2023/07/08 09:28:21;;;;;;;3.50;3.17;;;;;;;31.36;36.20;99543.06;4953396;29;20188;-74
2023/07/08 09:30:49;;;;;;;3.90;3.00;;;;;;;31.08;36.83;99539.16;4953486;29;20581;-74
2023/07/08 09:33:16;;;;;;;3.80;3.50;;;;;;;31.56;37.14;99531.31;4953056;29;20287;-74
2023/07/08 09:35:46;;;;;;;4.37;4.07;;;;;;;32.23;35.79;99531.97;4953441;29;20200;-74
2023/07/08 09:38:18;;;;;;;3.97;3.67;;;;;;;32.36;35.34;99503.41;4953565;29;20200;-73
2023/07/08 09:40:49;;;;;;;4.17;3.77;;;;;;;32.76;34.66;99522.88;4953744;29;20224;-74
2023/07/08 09:43:25;;;;;;;3.93;3.63;;;;;;;32.79;34.44;99523.00;4952945;29;20575;-74
2023/07/08 09:45:51;;;;;;;5.57;3.87;;;;;;;32.81;35.12;99520.75;4953393;29;20711;-75
2023/07/08 09:48:22;;;;;;;3.50;3.30;;;;;;;32.61;35.26;99509.75;4953528;29;20255;-73
2023/07/08 09:50:51;;;;;;;4.13;3.60;;;;;;;32.85;35.33;99499.66;4953497;29;20235;-74
2023/07/08 09:53:20;;;;;;;4.07;3.57;;;;;;;32.73;34.64;99499.59;4952997;29;20224;-74
2023/07/08 09:55:47;;;;;;;4.57;3.60;;;;;;;32.23;35.05;99493.47;4952240;29;20200;-74
2023/07/08 09:58:25;;;;;;;3.53;3.30;;;;;;;32.83;35.05;99504.69;4953269;29;20199;-74
2023/07/08 10:00:56;;;;;;;4.93;3.63;;;;;;;33.24;33.79;99496.22;4953487;29;20262;-74
2023/07/08 10:03:26;;;;;;;4.30;3.77;;;;;;;32.81;34.07;99504.22;4952942;29;20188;-73
2023/07/08 10:05:57;;;;;;;4.13;3.80;;;;;;;32.50;34.88;99492.88;4961404;28;20188;-74
2023/07/08 10:08:42;;;;;;;5.80;3.43;;;;;;;32.52;34.74;99507.13;4934014;28;1111516;-73
2023/07/08 10:11:28;;;;;;;4.50;3.80;;;;;;;32.84;34.34;99491.72;4973549;28;20250;-74
2023/07/08 10:14:00;;;;;;;8.80;3.80;;;;;;;33.05;33.83;99485.00;4960873;28;20188;-74
2023/07/08 10:16:29;;;;;;;11.00;3.97;;;;;;;33.22;33.91;99487.50;4953854;29;20239;-73
2023/07/08 10:18:57;;;;;;;3.70;3.28;;;;;;;32.84;33.94;99481.53;4954039;29;20200;-74
2023/07/08 10:21:37;;;;;;;3.90;3.60;;;;;;;32.78;34.65;99482.03;4952502;29;20206;-73
2023/07/08 10:24:22;;;;;;;4.17;3.97;;;;;;;32.90;34.26;99480.16;4954075;29;20250;-74
2023/07/08 10:27:06;;;;;;;3.73;3.10;;;;;;;33.00;34.04;99474.19;4954100;29;20207;-73
2023/07/08 10:29:39;;;;;;;3.83;3.63;;;;;;;32.95;33.98;99473.63;4953973;29;20200;-73
2023/07/08 10:32:19;;;;;;;3.70;3.40;;;;;;;33.13;34.07;99472.25;4952994;29;20204;-73
2023/07/08 10:34:53;;;;;;;3.27;3.07;;;;;;;33.18;33.21;99467.31;4953818;29;20184;-73
2023/07/08 10:37:29;;;;;;;4.00;3.50;;;;;;;33.23;33.28;99456.06;4953689;29;20596;-73
2023/07/08 10:40:12;;;;;;;3.55;3.35;;;;;;;33.37;32.24;99460.44;4953581;29;20648;-73
2023/07/08 10:43:01;;;;;;;3.67;3.28;;;;;;;33.40;33.27;99451.47;4953746;29;20196;-72
2023/07/08 10:45:32;;;;;;;4.05;3.63;;;;;;;33.33;32.86;99450.09;4948668;29;20192;-72
2023/07/08 10:48:16;;;;;;;4.05;3.40;;;;;;;33.65;32.18;99450.25;4954051;29;20625;-73
2023/07/08 10:51:04;;;;;;;4.68;3.50;;;;;;;33.79;32.14;99445.97;4953840;29;20251;-73
2023/07/08 10:53:45;;;;;;;5.47;3.22;;;;;;;33.16;32.31;99444.81;4953774;29;20302;-72
2023/07/08 10:56:17;;;;;;;5.50;3.13;;;;;;;33.44;32.06;99435.84;4953206;29;20188;-72
2023/07/08 10:59:15;;;;;;;5.82;3.40;;;;;;;33.78;31.89;99438.03;4953621;29;20196;-73
2023/07/08 11:01:57;;;;;;;3.20;3.03;;;;;;;34.04;32.19;99435.69;4953782;29;20192;-73
2023/07/08 11:04:43;;;;;;;4.05;3.70;;;;;;;34.08;30.93;99442.13;4953637;29;20189;-73
2023/07/08 11:07:17;;;;;;;3.05;2.70;;;;;;;33.26;31.17;99430.59;4964959;28;20189;-73
2023/07/08 11:09:50;;;;;;;3.10;3.00;;;;;;;33.16;31.20;99431.03;4953497;29;20240;-73
2023/07/08 11:12:29;;;;;;;3.50;3.20;;;;;;;33.08;31.79;99420.94;4953668;29;20275;-72
2023/07/08 11:15:00;;;;;;;2.70;2.60;;;;;;;33.44;31.76;99416.56;4953276;29;20184;-72
2023/07/08 11:17:34;;;;;;;4.05;3.58;;;;;;;33.54;31.80;99422.41;4953549;29;20235;-72
2023/07/08 11:20:08;;;;;;;3.03;2.92;;;;;;;33.88;31.76;99423.81;4952968;29;20188;-72
2023/07/08 11:22:38;;;;;;;7.47;3.08;;;;;;;33.42;31.41;99414.16;4953280;29;20632;-72
2023/07/08 11:25:15;;;;;;;3.30;3.10;;;;;;;33.13;32.21;99423.50;4953530;29;20196;-72
2023/07/08 11:27:44;;;;;;;3.85;2.92;;;;;;;32.91;32.84;99428.66;4953275;29;20235;-72
2023/07/08 11:30:16;;;;;;;5.38;3.15;;;;;;;33.44;32.38;99430.34;4953317;29;20196;-72
2023/07/08 11:32:48;;;;;;;4.80;3.30;;;;;;;33.60;32.08;99420.22;4954226;28;20704;-72
2023/07/08 11:35:20;;;;;;;7.22;3.40;;;;;;;33.52;32.52;99421.97;4956889;29;20283;-72
2023/07/08 11:37:48;;;;;;;5.93;3.30;;;;;;;33.14;32.13;99416.84;4956545;29;20644;-73